Terminal Aerodrome Forecast
Issued by NWS

Home | Current Version | Previous Version | Graphics & Text | Print | Product List | Glossary Off
Versions: 1 2 3 4 5 6 7 8 9 10 11 12 13

000
FTUS43 KDDC 231120
TAFGCK
TAF
KGCK 231120Z 2312/2412 33011KT P6SM FEW050
     FM231500 35017G27KT P6SM BKN070
     FM231800 34020G30KT P6SM OVC070
     FM240000 36010G20KT P6SM BKN070=

USA.gov is the U.S. government's official web portal to all federal, state and local government web resources and services.